createdAt,value
2018-12-30T00:02:45.485Z,18.57
2018-12-30T00:05:55.973Z,20.67
2018-12-30T00:08:35.799Z,16.77
2018-12-30T00:11:44.431Z,17.60
2018-12-30T00:14:32.499Z,15.77
2018-12-30T00:17:41.320Z,17.73
2018-12-30T00:20:50.206Z,16.77
2018-12-30T00:23:38.543Z,17.00
2018-12-30T00:26:24.898Z,18.90
2018-12-30T00:28:51.607Z,19.10
2018-12-30T00:31:37.959Z,16.57
2018-12-30T00:34:24.655Z,17.30
2018-12-30T00:37:11.146Z,17.60
2018-12-30T00:42:10.378Z,19.23
2018-12-30T00:44:37.006Z,19.60
2018-12-30T00:47:23.479Z,17.77
2018-12-30T00:50:09.848Z,23.03
2018-12-30T00:55:08.991Z,19.47
2018-12-30T00:57:35.625Z,21.47
2018-12-30T01:00:22.304Z,17.33
2018-12-30T01:03:08.979Z,19.73
2018-12-30T01:05:55.674Z,19.60
2018-12-30T01:08:42.023Z,22.33
2018-12-30T01:11:28.844Z,21.73
2018-12-30T01:13:55.632Z,20.90
2018-12-30T01:16:22.495Z,20.57
2018-12-30T01:19:09.052Z,21.90
2018-12-30T01:21:55.402Z,22.57
2018-12-30T01:24:41.831Z,24.03
2018-12-30T01:27:08.471Z,26.40
2018-12-30T01:29:54.912Z,24.17
2018-12-30T01:32:41.268Z,20.13
2018-12-30T01:35:08.119Z,23.83
2018-12-30T01:37:35.500Z,21.00
2018-12-30T01:40:22.027Z,20.67
2018-12-30T01:43:08.385Z,22.90
2018-12-30T01:48:08.483Z,20.43
2018-12-30T01:50:35.216Z,20.53
2018-12-30T01:55:56.319Z,19.43
2018-12-30T01:58:23.111Z,18.07
2018-12-30T02:01:09.471Z,18.70
2018-12-30T02:08:44.007Z,16.60
2018-12-30T02:11:30.994Z,16.13
2018-12-30T02:14:17.698Z,16.53
2018-12-30T02:17:04.053Z,14.97
2018-12-30T02:19:50.483Z,14.97
2018-12-30T02:22:36.839Z,16.10
2018-12-30T02:25:23.455Z,17.27
2018-12-30T02:27:50.264Z,16.47
2018-12-30T02:30:36.764Z,15.90
2018-12-30T02:33:23.119Z,17.37
2018-12-30T02:38:23.136Z,15.00
2018-12-30T02:41:09.575Z,15.07
2018-12-30T02:43:36.659Z,13.57
2018-12-30T02:46:03.396Z,14.23
2018-12-30T02:51:03.384Z,11.30
2018-12-30T02:53:49.823Z,12.00
2018-12-30T02:56:36.657Z,10.60
2018-12-30T02:59:23.182Z,11.07
2018-12-30T03:02:09.826Z,12.17
2018-12-30T03:04:56.373Z,9.20
2018-12-30T03:07:23.004Z,7.73
2018-12-30T03:09:51.769Z,6.70
2018-12-30T03:12:38.640Z,6.97
2018-12-30T03:15:05.411Z,6.83
2018-12-30T03:17:51.866Z,5.50
2018-12-30T03:20:38.227Z,3.57
2018-12-30T03:23:24.956Z,4.37
2018-12-30T03:26:11.585Z,2.50
2018-12-30T03:28:58.015Z,3.20
2018-12-30T03:31:24.767Z,4.33
2018-12-30T03:34:11.272Z,2.63
2018-12-30T03:36:57.639Z,2.97
2018-12-30T03:39:44.344Z,2.43
2018-12-30T03:42:31.010Z,2.33
2018-12-30T03:44:57.832Z,2.13
2018-12-30T03:47:44.192Z,2.80
2018-12-30T03:50:30.758Z,1.90
2018-12-30T03:52:57.521Z,2.60
2018-12-30T03:55:44.002Z,2.17
2018-12-30T03:58:30.630Z,1.60
2018-12-30T04:01:17.055Z,1.90
2018-12-30T04:04:03.432Z,2.10
2018-12-30T04:06:30.638Z,2.27
2018-12-30T04:09:17.266Z,1.50
2018-12-30T04:12:03.999Z,1.33
2018-12-30T04:14:30.694Z,1.67
2018-12-30T04:17:17.281Z,1.53
2018-12-30T04:20:03.810Z,1.60
2018-12-30T04:25:23.151Z,2.70
2018-12-30T04:28:09.589Z,3.40
2018-12-30T04:30:55.952Z,2.60
2018-12-30T04:33:22.678Z,2.37
2018-12-30T04:36:09.072Z,2.37
2018-12-30T04:38:55.501Z,2.53
2018-12-30T04:42:03.406Z,2.27
2018-12-30T04:45:11.332Z,3.40
2018-12-30T04:47:38.067Z,2.00
2018-12-30T04:50:24.477Z,2.23
2018-12-30T04:52:51.561Z,2.07
2018-12-30T04:55:38.020Z,1.87
2018-12-30T04:58:04.791Z,2.03
2018-12-30T05:00:31.856Z,2.53
2018-12-30T05:02:58.683Z,1.70
2018-12-30T05:05:45.035Z,2.30
2018-12-30T05:08:11.750Z,2.23
2018-12-30T05:10:58.109Z,1.47
2018-12-30T05:13:25.127Z,1.53
2018-12-30T05:16:11.910Z,2.53
2018-12-30T05:18:38.726Z,1.07
2018-12-30T05:21:05.781Z,1.00
2018-12-30T05:23:32.413Z,0.93
2018-12-30T05:26:19.113Z,1.00
2018-12-30T05:29:05.478Z,1.43
2018-12-30T05:34:25.394Z,0.70
2018-12-30T05:39:44.311Z,0.60
2018-12-30T05:42:30.739Z,0.60
2018-12-30T05:45:17.125Z,0.90
2018-12-30T05:48:03.554Z,0.80
2018-12-30T05:50:30.654Z,0.80
2018-12-30T05:52:57.387Z,0.93
2018-12-30T05:57:56.926Z,1.40
2018-12-30T06:00:43.330Z,1.50
2018-12-30T06:03:29.692Z,1.20
2018-12-30T06:06:37.947Z,1.30
2018-12-30T06:09:24.485Z,0.70
2018-12-30T06:12:10.899Z,1.50
2018-12-30T06:14:57.256Z,0.70
2018-12-30T06:17:37.511Z,0.70
2018-12-30T06:20:04.239Z,0.80
2018-12-30T06:22:51.121Z,1.37
2018-12-30T06:25:37.487Z,1.03
2018-12-30T06:28:24.253Z,1.37
2018-12-30T06:30:51.033Z,1.40
2018-12-30T06:33:38.028Z,1.70
2018-12-30T06:36:24.528Z,1.63
2018-12-30T06:39:10.979Z,1.10
2018-12-30T06:41:57.482Z,1.50
2018-12-30T06:47:17.033Z,1.30
2018-12-30T06:50:03.450Z,1.83
2018-12-30T06:52:57.362Z,1.50
2018-12-30T06:55:18.519Z,2.83
2018-12-30T06:57:45.256Z,4.33
2018-12-30T07:00:31.998Z,3.97
2018-12-30T07:02:59.094Z,3.20
2018-12-30T07:05:45.594Z,2.47
2018-12-30T07:08:12.732Z,2.30
2018-12-30T07:10:59.318Z,1.80
2018-12-30T07:13:26.082Z,2.70
2018-12-30T07:15:53.043Z,2.67
2018-12-30T07:20:52.268Z,1.83
2018-12-30T07:23:18.893Z,2.70
2018-12-30T07:26:05.984Z,3.33
2018-12-30T07:28:32.715Z,2.77
2018-12-30T07:31:19.192Z,3.13
2018-12-30T07:33:45.960Z,2.33
2018-12-30T07:36:12.602Z,3.90
2018-12-30T07:38:39.342Z,4.30
2018-12-30T07:41:06.314Z,3.77
2018-12-30T07:43:52.754Z,6.20
2018-12-30T07:46:39.443Z,3.90
2018-12-30T07:49:26.037Z,2.37
2018-12-30T07:52:12.663Z,3.67
2018-12-30T07:54:39.708Z,4.07
2018-12-30T07:57:26.073Z,3.37
2018-12-30T07:59:52.782Z,3.77
2018-12-30T08:02:39.135Z,3.93
2018-12-30T08:05:26.504Z,2.00
2018-12-30T08:08:14.250Z,2.43
2018-12-30T08:11:00.653Z,4.00
2018-12-30T08:13:47.016Z,2.40
2018-12-30T08:16:33.814Z,2.77
2018-12-30T08:19:20.260Z,4.27
2018-12-30T08:22:07.087Z,5.07
2018-12-30T08:24:53.530Z,2.23
2018-12-30T08:27:20.216Z,3.23
2018-12-30T08:29:46.855Z,2.00
2018-12-30T08:32:33.660Z,2.57
2018-12-30T08:35:00.297Z,2.43
2018-12-30T08:37:26.911Z,2.40
2018-12-30T08:42:45.899Z,4.27
2018-12-30T08:45:32.411Z,5.43
2018-12-30T08:47:59.159Z,2.67
2018-12-30T08:50:45.588Z,1.87
2018-12-30T08:53:31.938Z,4.53
2018-12-30T08:55:58.631Z,3.10
2018-12-30T08:58:25.828Z,4.70
2018-12-30T09:01:12.247Z,4.27
2018-12-30T09:03:58.958Z,4.37
2018-12-30T09:06:25.668Z,2.17
2018-12-30T09:08:52.304Z,3.67
2018-12-30T09:11:38.735Z,2.87
2018-12-30T09:14:05.359Z,3.37
2018-12-30T09:16:31.995Z,5.47
2018-12-30T09:18:58.696Z,5.03
2018-12-30T09:21:45.408Z,4.73
2018-12-30T09:24:12.275Z,4.13
2018-12-30T09:26:58.644Z,3.40
2018-12-30T09:29:45.468Z,4.03
2018-12-30T09:32:12.921Z,5.50
2018-12-30T09:34:59.345Z,4.13
2018-12-30T09:37:45.840Z,5.20
2018-12-30T09:40:12.715Z,7.17
2018-12-30T09:42:59.344Z,5.73
2018-12-30T09:45:26.132Z,8.10
2018-12-30T09:47:52.760Z,4.77
2018-12-30T09:50:39.158Z,5.87
2018-12-30T09:53:25.544Z,6.93
2018-12-30T09:55:52.232Z,3.97
2018-12-30T09:58:38.588Z,5.03
2018-12-30T10:01:05.390Z,6.00
2018-12-30T10:03:51.748Z,5.80
2018-12-30T10:09:11.509Z,7.30
2018-12-30T10:11:57.941Z,6.63
2018-12-30T10:14:44.178Z,6.97
2018-12-30T10:17:30.591Z,6.60
2018-12-30T10:20:17.086Z,6.13
2018-12-30T10:23:03.525Z,6.37
2018-12-30T10:25:43.031Z,4.23
2018-12-30T10:28:09.721Z,7.43
2018-12-30T10:30:56.374Z,8.27
2018-12-30T10:33:42.868Z,6.00
2018-12-30T10:36:09.495Z,2.97
2018-12-30T10:38:36.231Z,5.73
2018-12-30T10:41:22.648Z,6.13
2018-12-30T10:44:09.273Z,7.47
2018-12-30T10:46:55.688Z,5.77
2018-12-30T10:49:42.061Z,5.43
2018-12-30T10:52:09.347Z,8.90
2018-12-30T10:54:55.985Z,5.63
2018-12-30T10:57:42.674Z,7.30
2018-12-30T11:00:29.139Z,3.87
2018-12-30T11:02:55.998Z,5.73
2018-12-30T11:05:42.387Z,5.50
2018-12-30T11:08:28.802Z,6.87
2018-12-30T11:11:15.444Z,5.13
2018-12-30T11:16:34.576Z,6.87
2018-12-30T11:19:21.297Z,12.90
2018-12-30T11:21:48.355Z,3.80
2018-12-30T11:24:34.769Z,7.53
2018-12-30T11:27:21.421Z,4.33
2018-12-30T11:30:07.847Z,6.17
2018-12-30T11:33:15.616Z,7.03
2018-12-30T11:36:02.034Z,8.73
2018-12-30T11:38:48.389Z,7.90
2018-12-30T11:41:34.900Z,6.60
2018-12-30T11:44:21.251Z,6.90
2018-12-30T11:46:48.607Z,6.20
2018-12-30T11:49:34.978Z,3.53
2018-12-30T11:52:02.006Z,9.13
2018-12-30T11:54:48.699Z,4.60
2018-12-30T11:57:35.385Z,6.40
2018-12-30T12:05:40.624Z,5.73
2018-12-30T12:08:07.650Z,5.63
2018-12-30T12:10:54.088Z,5.77
2018-12-30T12:13:20.841Z,4.23
2018-12-30T12:16:07.534Z,7.57
2018-12-30T12:18:54.167Z,4.73
2018-12-30T12:21:20.865Z,9.63
2018-12-30T12:24:07.217Z,7.63
2018-12-30T12:26:53.803Z,4.57
2018-12-30T12:29:33.363Z,8.67
2018-12-30T12:32:00.070Z,4.00
2018-12-30T12:34:46.429Z,4.40
2018-12-30T12:37:13.545Z,5.60
2018-12-30T12:39:59.899Z,5.00
2018-12-30T12:42:46.394Z,5.83
2018-12-30T12:45:32.796Z,4.40
2018-12-30T12:47:59.894Z,2.87
2018-12-30T12:50:46.252Z,4.33
2018-12-30T12:53:33.010Z,6.00
2018-12-30T12:56:19.471Z,5.83
2018-12-30T12:59:05.890Z,5.53
2018-12-30T13:01:52.870Z,3.73
2018-12-30T13:04:19.682Z,4.83
2018-12-30T13:07:06.048Z,5.30
2018-12-30T13:09:52.740Z,4.20
2018-12-30T13:12:39.370Z,4.20
2018-12-30T13:15:07.350Z,5.30
2018-12-30T13:17:53.709Z,3.90
2018-12-30T13:20:40.126Z,4.83
2018-12-30T13:23:26.501Z,5.73
2018-12-30T13:26:12.921Z,5.50
2018-12-30T13:28:39.681Z,11.53
2018-12-30T13:31:08.300Z,8.27
2018-12-30T13:33:54.729Z,7.30
2018-12-30T13:36:41.878Z,4.90
2018-12-30T13:42:23.448Z,4.77
2018-12-30T13:45:09.856Z,3.33
2018-12-30T13:47:56.419Z,6.20
2018-12-30T13:50:42.967Z,7.70
2018-12-30T13:53:10.263Z,6.03
2018-12-30T13:55:58.534Z,5.60
2018-12-30T13:58:45.289Z,6.20
2018-12-30T14:01:31.650Z,5.00
2018-12-30T14:04:18.446Z,4.53
2018-12-30T14:07:05.094Z,5.67
2018-12-30T14:09:51.545Z,9.30
2018-12-30T14:12:37.898Z,8.93
2018-12-30T14:15:05.405Z,7.40
2018-12-30T14:17:32.248Z,5.80
2018-12-30T14:19:58.891Z,5.53
2018-12-30T14:22:25.831Z,4.60
2018-12-30T14:24:55.449Z,8.40
2018-12-30T14:27:40.901Z,10.27
2018-12-30T14:30:49.113Z,7.00
2018-12-30T14:33:28.451Z,10.10
2018-12-30T14:35:55.183Z,10.30
2018-12-30T14:38:41.885Z,8.53
2018-12-30T14:41:28.243Z,5.50
2018-12-30T14:44:14.796Z,6.83
2018-12-30T14:47:01.431Z,5.37
2018-12-30T14:49:47.850Z,7.90
2018-12-30T14:52:34.224Z,6.47
2018-12-30T14:55:20.923Z,7.37
2018-12-30T14:58:07.386Z,8.13
2018-12-30T15:00:34.185Z,6.00
2018-12-30T15:03:20.552Z,8.10
2018-12-30T15:05:47.369Z,9.23
2018-12-30T15:08:14.288Z,8.03
2018-12-30T15:11:00.735Z,7.50
2018-12-30T15:13:47.146Z,8.50
2018-12-30T15:16:33.516Z,7.90
2018-12-30T15:19:19.875Z,8.23
2018-12-30T15:22:06.583Z,5.93
2018-12-30T15:24:52.941Z,8.70
2018-12-30T15:27:39.711Z,7.93
2018-12-30T15:30:48.520Z,8.10
2018-12-30T15:33:35.241Z,7.00
2018-12-30T15:36:21.795Z,8.07
2018-12-30T15:39:08.204Z,6.63
2018-12-30T15:41:54.568Z,7.13
2018-12-30T15:44:21.373Z,6.67
2018-12-30T15:47:07.732Z,5.47
2018-12-30T15:49:54.181Z,7.80
2018-12-30T15:52:40.843Z,13.33
2018-12-30T15:55:27.388Z,7.93
2018-12-30T15:58:14.326Z,7.47
2018-12-30T16:01:00.743Z,3.77
2018-12-30T16:03:27.384Z,8.43
2018-12-30T16:05:57.685Z,9.37
2018-12-30T16:08:23.906Z,8.03
2018-12-30T16:11:10.292Z,9.73
2018-12-30T16:14:04.184Z,10.27
2018-12-30T16:16:31.474Z,10.10
2018-12-30T16:19:18.021Z,11.53
2018-12-30T16:22:04.665Z,12.93
2018-12-30T16:24:51.398Z,9.03
2018-12-30T16:27:37.890Z,11.13
2018-12-30T16:30:25.487Z,8.03
2018-12-30T16:33:11.839Z,8.63
2018-12-30T16:35:51.686Z,10.57
2018-12-30T16:38:38.581Z,7.70
2018-12-30T16:41:25.090Z,8.80
2018-12-30T16:44:11.454Z,8.63
2018-12-30T16:46:57.882Z,9.03
2018-12-30T16:49:44.668Z,10.87
2018-12-30T16:52:31.244Z,15.50
2018-12-30T16:54:57.984Z,13.20
2018-12-30T16:57:44.405Z,9.20
2018-12-30T17:00:30.657Z,13.10
2018-12-30T17:03:17.142Z,11.43
2018-12-30T17:05:43.895Z,9.73
2018-12-30T17:08:30.404Z,11.27
2018-12-30T17:10:57.204Z,13.43
2018-12-30T17:13:23.949Z,9.50
2018-12-30T17:16:10.501Z,14.00
2018-12-30T17:18:37.369Z,14.40
2018-12-30T17:21:04.108Z,12.77
2018-12-30T17:23:50.528Z,11.17
2018-12-30T17:26:36.906Z,11.13
2018-12-30T17:29:23.601Z,8.47
2018-12-30T17:31:50.339Z,11.90
2018-12-30T17:34:16.970Z,11.17
2018-12-30T17:37:03.461Z,10.60
2018-12-30T17:39:50.187Z,15.97
2018-12-30T17:42:36.594Z,8.87
2018-12-30T17:45:44.908Z,15.43
2018-12-30T17:48:31.332Z,16.10
2018-12-30T17:51:17.967Z,12.97
2018-12-30T17:53:44.963Z,10.10
2018-12-30T17:56:31.329Z,11.73
2018-12-30T17:58:58.373Z,10.90
2018-12-30T18:01:25.121Z,10.37
2018-12-30T18:04:11.536Z,10.13
2018-12-30T18:06:57.895Z,14.87
2018-12-30T18:09:44.673Z,9.63
2018-12-30T18:12:31.019Z,12.43
2018-12-30T18:14:57.983Z,8.33
2018-12-30T18:17:44.351Z,10.57
2018-12-30T18:20:11.138Z,15.63
2018-12-30T18:22:57.819Z,10.00
2018-12-30T18:25:24.889Z,9.00
2018-12-30T18:27:51.636Z,9.50
2018-12-30T18:30:38.057Z,10.13
2018-12-30T18:33:24.415Z,14.77
2018-12-30T18:36:11.042Z,10.97
2018-12-30T18:38:51.064Z,13.80
2018-12-30T18:41:37.794Z,14.83
2018-12-30T18:44:45.955Z,10.53
2018-12-30T18:47:32.450Z,10.30
2018-12-30T18:50:20.670Z,9.90
2018-12-30T18:53:07.576Z,8.60
2018-12-30T18:55:54.090Z,11.07
2018-12-30T18:58:20.983Z,10.10
2018-12-30T19:01:28.787Z,9.83
2018-12-30T19:04:36.720Z,7.47
2018-12-30T19:07:23.586Z,13.17
2018-12-30T19:09:51.191Z,10.70
2018-12-30T19:12:17.940Z,11.60
2018-12-30T19:14:45.414Z,8.50
2018-12-30T19:17:31.956Z,8.17
2018-12-30T19:20:18.443Z,18.60
2018-12-30T19:23:04.749Z,13.33
2018-12-30T19:25:31.387Z,10.27
2018-12-30T19:28:19.520Z,11.20
2018-12-30T19:31:06.289Z,12.20
2018-12-30T19:33:33.076Z,10.90
2018-12-30T19:36:19.425Z,9.63
2018-12-30T19:39:27.355Z,6.97
2018-12-30T19:42:13.779Z,9.83
2018-12-30T19:47:13.885Z,11.37
2018-12-30T19:49:40.513Z,8.50
2018-12-30T19:52:27.587Z,11.73
2018-12-30T19:54:54.328Z,7.20
2018-12-30T20:00:17.861Z,11.70
2018-12-30T20:03:04.799Z,13.30
2018-12-30T20:05:51.585Z,10.83
2018-12-30T20:08:38.318Z,9.93
2018-12-30T20:11:24.762Z,9.07
2018-12-30T20:14:11.114Z,13.50
2018-12-30T20:16:57.537Z,10.33
2018-12-30T20:19:43.940Z,12.00
2018-12-30T20:22:30.388Z,7.57
2018-12-30T20:24:57.128Z,9.37
2018-12-30T20:27:43.554Z,11.20
2018-12-30T20:30:10.413Z,11.07
2018-12-30T20:32:56.818Z,15.50
2018-12-30T20:35:43.302Z,10.47
2018-12-30T20:38:10.010Z,11.07
2018-12-30T20:40:36.980Z,7.33
2018-12-30T20:43:17.122Z,10.37
2018-12-30T20:45:44.255Z,11.83
2018-12-30T20:48:10.887Z,10.27
2018-12-30T20:50:57.310Z,8.77
2018-12-30T20:53:23.941Z,9.33
2018-12-30T20:55:50.676Z,9.00
2018-12-30T20:58:18.046Z,11.17
2018-12-30T21:04:13.818Z,15.33
2018-12-30T21:06:40.566Z,8.30
2018-12-30T21:09:07.487Z,8.90
2018-12-30T21:12:16.638Z,13.37
2018-12-30T21:14:43.565Z,13.97
2018-12-30T21:17:10.304Z,8.87
2018-12-30T21:19:56.840Z,12.17
2018-12-30T21:22:44.121Z,9.33
2018-12-30T21:25:30.485Z,10.30
2018-12-30T21:28:17.698Z,11.27
2018-12-30T21:30:44.518Z,12.83
2018-12-30T21:33:11.149Z,12.67
2018-12-30T21:35:57.730Z,12.87
2018-12-30T21:38:24.369Z,14.47
2018-12-30T21:41:11.691Z,12.63
2018-12-30T21:43:51.080Z,8.13
2018-12-30T21:49:10.731Z,9.33
2018-12-30T21:54:30.152Z,10.67
2018-12-30T21:57:17.082Z,11.17
2018-12-30T21:59:44.476Z,10.73
2018-12-30T22:02:11.119Z,11.10
2018-12-30T22:04:57.628Z,10.93
2018-12-30T22:07:45.112Z,9.40
2018-12-30T22:10:31.609Z,18.57
2018-12-30T22:12:58.702Z,14.07
2018-12-30T22:15:25.447Z,8.77
2018-12-30T22:17:52.186Z,12.50
2018-12-30T22:20:19.122Z,10.00
2018-12-30T22:22:45.883Z,12.73
2018-12-30T22:25:12.731Z,10.33
2018-12-30T22:27:59.083Z,13.50
2018-12-30T22:30:45.499Z,11.07
2018-12-30T22:33:32.138Z,11.60
2018-12-30T22:36:18.682Z,17.67
2018-12-30T22:39:05.068Z,9.80
2018-12-30T22:41:51.497Z,18.47
2018-12-30T22:47:21.018Z,11.87
2018-12-30T22:50:07.689Z,11.30
2018-12-30T22:52:54.499Z,12.43
2018-12-30T22:55:40.912Z,14.93
2018-12-30T22:58:07.919Z,14.53
2018-12-30T23:00:54.449Z,11.00
2018-12-30T23:03:41.338Z,11.40
2018-12-30T23:06:27.968Z,15.90
2018-12-30T23:09:14.504Z,9.20
2018-12-30T23:12:01.711Z,11.27
2018-12-30T23:14:49.785Z,15.47
2018-12-30T23:17:16.409Z,12.90
2018-12-30T23:20:02.932Z,15.53
2018-12-30T23:22:29.883Z,13.13
2018-12-30T23:24:56.611Z,13.13
2018-12-30T23:30:16.032Z,10.80
2018-12-30T23:32:42.809Z,12.70
2018-12-30T23:35:29.168Z,14.63
2018-12-30T23:40:47.968Z,9.70
2018-12-30T23:46:00.865Z,12.57
2018-12-30T23:51:00.692Z,8.40
2018-12-30T23:53:47.231Z,17.90
2018-12-30T23:56:33.595Z,14.23
